sensor_id;sensor_type;location;lat;lon;timestamp;pressure;altitude;pressure_sealevel;temperature;humidity
29815;BME280;16708;50.426;7.664;2022-08-19T00:09:21;984.70;;;17.96;100.00
29815;BME280;16708;50.426;7.664;2022-08-19T00:14:16;984.71;;;17.98;100.00
29815;BME280;16708;50.426;7.664;2022-08-19T00:19:10;984.71;;;17.96;100.00
29815;BME280;16708;50.426;7.664;2022-08-19T00:24:05;984.67;;;18.07;100.00
29815;BME280;16708;50.426;7.664;2022-08-19T00:33:54;984.66;;;18.08;100.00
29815;BME280;16708;50.426;7.664;2022-08-19T00:43:43;984.53;;;18.06;100.00
29815;BME280;16708;50.426;7.664;2022-08-19T00:48:37;984.44;;;17.99;100.00
29815;BME280;16708;50.426;7.664;2022-08-19T00:53:32;984.35;;;17.88;100.00
29815;BME280;16708;50.426;7.664;2022-08-19T01:08:16;984.54;;;17.80;100.00
29815;BME280;16708;50.426;7.664;2022-08-19T01:13:10;984.49;;;17.76;100.00
29815;BME280;16708;50.426;7.664;2022-08-19T01:18:05;984.49;;;17.75;100.00
29815;BME280;16708;50.426;7.664;2022-08-19T01:22:59;984.31;;;17.71;100.00
29815;BME280;16708;50.426;7.664;2022-08-19T01:27:53;984.24;;;17.56;100.00
29815;BME280;16708;50.426;7.664;2022-08-19T01:37:42;984.38;;;17.25;100.00
29815;BME280;16708;50.426;7.664;2022-08-19T01:42:36;984.29;;;17.24;100.00
29815;BME280;16708;50.426;7.664;2022-08-19T01:47:31;984.29;;;17.18;100.00
29815;BME280;16708;50.426;7.664;2022-08-19T01:52:24;984.28;;;17.09;100.00
29815;BME280;16708;50.426;7.664;2022-08-19T01:57:19;984.19;;;16.98;100.00
29815;BME280;16708;50.426;7.664;2022-08-19T02:02:13;984.12;;;16.94;100.00
29815;BME280;16708;50.426;7.664;2022-08-19T02:16:56;984.07;;;16.91;100.00
29815;BME280;16708;50.426;7.664;2022-08-19T02:21:51;984.18;;;16.85;100.00
29815;BME280;16708;50.426;7.664;2022-08-19T02:26:45;984.25;;;16.79;100.00
29815;BME280;16708;50.426;7.664;2022-08-19T02:31:39;984.29;;;16.82;100.00
29815;BME280;16708;50.426;7.664;2022-08-19T02:36:34;984.18;;;16.75;100.00
29815;BME280;16708;50.426;7.664;2022-08-19T02:41:28;984.15;;;16.75;100.00
29815;BME280;16708;50.426;7.664;2022-08-19T02:46:22;984.24;;;16.56;100.00
29815;BME280;16708;50.426;7.664;2022-08-19T02:51:17;984.37;;;16.58;100.00
29815;BME280;16708;50.426;7.664;2022-08-19T02:56:11;984.23;;;16.50;100.00
29815;BME280;16708;50.426;7.664;2022-08-19T03:01:05;984.18;;;16.45;100.00
29815;BME280;16708;50.426;7.664;2022-08-19T03:06:00;984.23;;;16.48;100.00
29815;BME280;16708;50.426;7.664;2022-08-19T03:15:48;984.47;;;16.25;100.00
29815;BME280;16708;50.426;7.664;2022-08-19T03:20:41;984.39;;;16.17;100.00
29815;BME280;16708;50.426;7.664;2022-08-19T03:25:36;984.50;;;15.97;100.00
29815;BME280;16708;50.426;7.664;2022-08-19T03:30:30;984.66;;;16.11;100.00
29815;BME280;16708;50.426;7.664;2022-08-19T03:40:18;984.52;;;16.20;100.00
29815;BME280;16708;50.426;7.664;2022-08-19T03:45:13;984.50;;;16.08;100.00
29815;BME280;16708;50.426;7.664;2022-08-19T03:50:07;984.49;;;16.01;100.00
29815;BME280;16708;50.426;7.664;2022-08-19T03:55:01;984.51;;;15.96;100.00
29815;BME280;16708;50.426;7.664;2022-08-19T03:59:55;984.55;;;15.93;100.00
29815;BME280;16708;50.426;7.664;2022-08-19T04:04:50;984.56;;;15.92;100.00
29815;BME280;16708;50.426;7.664;2022-08-19T04:09:44;984.57;;;15.86;100.00
29815;BME280;16708;50.426;7.664;2022-08-19T04:14:39;984.61;;;15.81;100.00
29815;BME280;16708;50.426;7.664;2022-08-19T04:19:34;984.66;;;15.81;100.00
29815;BME280;16708;50.426;7.664;2022-08-19T04:24:28;984.71;;;15.73;100.00
29815;BME280;16708;50.426;7.664;2022-08-19T04:34:18;984.78;;;15.59;100.00
29815;BME280;16708;50.426;7.664;2022-08-19T04:39:12;984.84;;;15.59;100.00
29815;BME280;16708;50.426;7.664;2022-08-19T04:44:06;984.96;;;15.80;100.00
29815;BME280;16708;50.426;7.664;2022-08-19T04:49:01;984.91;;;15.89;100.00
29815;BME280;16708;50.426;7.664;2022-08-19T04:53:55;984.89;;;16.00;100.00
29815;BME280;16708;50.426;7.664;2022-08-19T04:58:50;984.91;;;16.10;100.00
29815;BME280;16708;50.426;7.664;2022-08-19T05:03:44;984.93;;;16.25;100.00
29815;BME280;16708;50.426;7.664;2022-08-19T05:08:39;984.99;;;16.23;100.00
29815;BME280;16708;50.426;7.664;2022-08-19T05:13:34;985.01;;;16.49;100.00
29815;BME280;16708;50.426;7.664;2022-08-19T05:18:28;984.89;;;16.59;100.00
29815;BME280;16708;50.426;7.664;2022-08-19T05:23:23;984.95;;;16.68;100.00
29815;BME280;16708;50.426;7.664;2022-08-19T05:28:18;984.99;;;16.67;100.00
29815;BME280;16708;50.426;7.664;2022-08-19T05:33:12;984.90;;;16.73;100.00
29815;BME280;16708;50.426;7.664;2022-08-19T05:38:07;984.89;;;16.93;100.00
29815;BME280;16708;50.426;7.664;2022-08-19T05:43:01;984.98;;;17.30;100.00
29815;BME280;16708;50.426;7.664;2022-08-19T05:47:55;984.95;;;17.37;100.00
29815;BME280;16708;50.426;7.664;2022-08-19T05:57:44;984.88;;;17.24;100.00
29815;BME280;16708;50.426;7.664;2022-08-19T06:02:39;984.98;;;17.43;100.00
29815;BME280;16708;50.426;7.664;2022-08-19T06:07:33;984.91;;;17.55;100.00
29815;BME280;16708;50.426;7.664;2022-08-19T06:12:27;984.97;;;17.58;100.00
29815;BME280;16708;50.426;7.664;2022-08-19T06:22:16;985.10;;;18.41;100.00
29815;BME280;16708;50.426;7.664;2022-08-19T06:32:05;985.21;;;19.10;100.00
29815;BME280;16708;50.426;7.664;2022-08-19T06:36:58;985.27;;;19.31;100.00
29815;BME280;16708;50.426;7.664;2022-08-19T06:41:53;985.28;;;19.18;100.00
29815;BME280;16708;50.426;7.664;2022-08-19T06:46:47;985.30;;;19.09;100.00
29815;BME280;16708;50.426;7.664;2022-08-19T06:51:42;985.48;;;19.55;100.00
29815;BME280;16708;50.426;7.664;2022-08-19T06:56:35;985.53;;;19.55;100.00
29815;BME280;16708;50.426;7.664;2022-08-19T07:06:24;985.64;;;19.75;100.00
29815;BME280;16708;50.426;7.664;2022-08-19T07:11:19;985.72;;;19.12;100.00
29815;BME280;16708;50.426;7.664;2022-08-19T07:21:08;985.85;;;19.91;100.00
29815;BME280;16708;50.426;7.664;2022-08-19T07:26:03;985.79;;;19.77;100.00
29815;BME280;16708;50.426;7.664;2022-08-19T07:30:57;985.97;;;20.32;100.00
29815;BME280;16708;50.426;7.664;2022-08-19T07:35:52;986.04;;;20.93;100.00
29815;BME280;16708;50.426;7.664;2022-08-19T07:45:42;985.90;;;21.79;100.00
29815;BME280;16708;50.426;7.664;2022-08-19T07:50:37;986.06;;;21.35;100.00
29815;BME280;16708;50.426;7.664;2022-08-19T07:55:31;985.89;;;21.05;100.00
29815;BME280;16708;50.426;7.664;2022-08-19T08:00:26;985.83;;;21.13;100.00
29815;BME280;16708;50.426;7.664;2022-08-19T08:10:16;985.90;;;21.50;100.00
29815;BME280;16708;50.426;7.664;2022-08-19T08:15:10;985.79;;;21.48;100.00
29815;BME280;16708;50.426;7.664;2022-08-19T08:20:04;985.82;;;21.75;100.00
29815;BME280;16708;50.426;7.664;2022-08-19T08:29:52;985.89;;;22.03;100.00
29815;BME280;16708;50.426;7.664;2022-08-19T08:34:47;985.94;;;22.24;100.00
29815;BME280;16708;50.426;7.664;2022-08-19T08:39:42;986.02;;;22.58;98.41
29815;BME280;16708;50.426;7.664;2022-08-19T08:54:25;985.85;;;23.23;87.79
29815;BME280;16708;50.426;7.664;2022-08-19T08:59:20;985.89;;;23.40;85.07
29815;BME280;16708;50.426;7.664;2022-08-19T09:04:14;985.82;;;23.76;81.88
29815;BME280;16708;50.426;7.664;2022-08-19T09:09:09;985.96;;;24.16;80.71
29815;BME280;16708;50.426;7.664;2022-08-19T09:14:04;985.87;;;24.97;71.94
29815;BME280;16708;50.426;7.664;2022-08-19T09:23:53;985.89;;;25.55;65.37
29815;BME280;16708;50.426;7.664;2022-08-19T09:33:42;985.89;;;26.17;57.65
29815;BME280;16708;50.426;7.664;2022-08-19T09:43:34;985.74;;;25.78;59.83
29815;BME280;16708;50.426;7.664;2022-08-19T09:48:26;985.81;;;24.74;61.03
29815;BME280;16708;50.426;7.664;2022-08-19T09:58:12;985.91;;;30.17;41.85
29815;BME280;16708;50.426;7.664;2022-08-19T10:03:09;985.84;;;30.43;39.21
29815;BME280;16708;50.426;7.664;2022-08-19T10:08:01;985.80;;;29.14;42.67
29815;BME280;16708;50.426;7.664;2022-08-19T10:12:56;985.89;;;28.73;45.49
29815;BME280;16708;50.426;7.664;2022-08-19T10:17:50;985.86;;;30.06;39.97
29815;BME280;16708;50.426;7.664;2022-08-19T10:22:45;985.86;;;29.39;41.13
29815;BME280;16708;50.426;7.664;2022-08-19T10:27:40;985.77;;;30.25;40.26
29815;BME280;16708;50.426;7.664;2022-08-19T10:32:36;985.72;;;30.82;38.33
29815;BME280;16708;50.426;7.664;2022-08-19T10:37:31;985.75;;;30.47;38.91
29815;BME280;16708;50.426;7.664;2022-08-19T10:42:26;985.67;;;32.68;34.95
29815;BME280;16708;50.426;7.664;2022-08-19T10:47:22;985.57;;;32.55;34.85
29815;BME280;16708;50.426;7.664;2022-08-19T10:52:17;985.66;;;32.17;34.42
29815;BME280;16708;50.426;7.664;2022-08-19T10:57:12;985.55;;;31.13;36.26
29815;BME280;16708;50.426;7.664;2022-08-19T11:02:07;985.53;;;31.84;35.74
29815;BME280;16708;50.426;7.664;2022-08-19T11:07:01;985.56;;;30.92;36.71
29815;BME280;16708;50.426;7.664;2022-08-19T11:11:56;985.52;;;31.55;35.87
29815;BME280;16708;50.426;7.664;2022-08-19T11:16:51;985.52;;;31.76;34.50
29815;BME280;16708;50.426;7.664;2022-08-19T11:21:45;985.46;;;27.87;42.65
29815;BME280;16708;50.426;7.664;2022-08-19T11:26:39;985.42;;;31.87;33.43
29815;BME280;16708;50.426;7.664;2022-08-19T11:31:34;985.40;;;32.61;31.73
29815;BME280;16708;50.426;7.664;2022-08-19T11:36:29;985.40;;;29.59;38.80
29815;BME280;16708;50.426;7.664;2022-08-19T11:41:21;985.34;;;27.98;41.43
29815;BME280;16708;50.426;7.664;2022-08-19T11:46:14;985.37;;;30.77;35.24
29815;BME280;16708;50.426;7.664;2022-08-19T11:51:09;985.18;;;32.64;31.39
29815;BME280;16708;50.426;7.664;2022-08-19T11:56:05;985.30;;;31.51;34.34
29815;BME280;16708;50.426;7.664;2022-08-19T12:01:00;985.14;;;28.65;39.43
29815;BME280;16708;50.426;7.664;2022-08-19T12:05:53;985.26;;;31.87;33.72
29815;BME280;16708;50.426;7.664;2022-08-19T12:10:49;985.24;;;29.24;38.61
29815;BME280;16708;50.426;7.664;2022-08-19T12:15:42;985.32;;;29.04;39.04
29815;BME280;16708;50.426;7.664;2022-08-19T12:20:37;985.38;;;32.21;33.28
29815;BME280;16708;50.426;7.664;2022-08-19T12:25:33;985.36;;;33.62;30.24
29815;BME280;16708;50.426;7.664;2022-08-19T12:30:28;985.26;;;36.19;27.64
29815;BME280;16708;50.426;7.664;2022-08-19T12:35:23;985.26;;;36.02;26.88
29815;BME280;16708;50.426;7.664;2022-08-19T12:40:20;985.22;;;34.72;27.42
29815;BME280;16708;50.426;7.664;2022-08-19T12:45:14;985.09;;;33.53;27.82
29815;BME280;16708;50.426;7.664;2022-08-19T12:50:09;985.04;;;33.46;28.63
29815;BME280;16708;50.426;7.664;2022-08-19T12:59:58;984.95;;;35.36;26.58
29815;BME280;16708;50.426;7.664;2022-08-19T13:04:53;984.90;;;35.48;26.99
29815;BME280;16708;50.426;7.664;2022-08-19T13:09:48;984.89;;;32.25;31.49
29815;BME280;16708;50.426;7.664;2022-08-19T13:14:41;984.82;;;31.35;32.51
29815;BME280;16708;50.426;7.664;2022-08-19T13:19:36;984.91;;;34.44;27.40
29815;BME280;16708;50.426;7.664;2022-08-19T13:24:32;984.90;;;34.22;27.32
29815;BME280;16708;50.426;7.664;2022-08-19T13:29:27;984.80;;;34.12;26.54
29815;BME280;16708;50.426;7.664;2022-08-19T13:34:22;984.81;;;35.39;25.46
29815;BME280;16708;50.426;7.664;2022-08-19T13:39:16;984.82;;;36.74;23.92
29815;BME280;16708;50.426;7.664;2022-08-19T13:44:12;984.96;;;35.50;26.55
29815;BME280;16708;50.426;7.664;2022-08-19T13:49:07;984.92;;;35.22;25.49
29815;BME280;16708;50.426;7.664;2022-08-19T13:54:00;984.96;;;35.23;25.33
29815;BME280;16708;50.426;7.664;2022-08-19T13:58:54;984.79;;;31.38;29.87
29815;BME280;16708;50.426;7.664;2022-08-19T14:03:48;984.89;;;34.06;25.71
29815;BME280;16708;50.426;7.664;2022-08-19T14:08:43;984.80;;;35.14;24.92
29815;BME280;16708;50.426;7.664;2022-08-19T14:13:38;984.90;;;33.91;25.53
29815;BME280;16708;50.426;7.664;2022-08-19T14:18:32;984.87;;;34.14;25.18
29815;BME280;16708;50.426;7.664;2022-08-19T14:23:28;984.81;;;33.87;25.32
29815;BME280;16708;50.426;7.664;2022-08-19T14:28:22;984.90;;;35.49;23.90
29815;BME280;16708;50.426;7.664;2022-08-19T14:33:18;984.78;;;35.78;22.69
29815;BME280;16708;50.426;7.664;2022-08-19T14:38:13;984.82;;;36.24;22.87
29815;BME280;16708;50.426;7.664;2022-08-19T14:43:08;984.77;;;37.33;21.14
29815;BME280;16708;50.426;7.664;2022-08-19T14:48:04;984.80;;;37.38;20.92
29815;BME280;16708;50.426;7.664;2022-08-19T14:57:53;984.73;;;35.30;24.46
29815;BME280;16708;50.426;7.664;2022-08-19T15:02:47;984.75;;;36.86;23.35
29815;BME280;16708;50.426;7.664;2022-08-19T15:07:43;984.89;;;37.10;22.55
29815;BME280;16708;50.426;7.664;2022-08-19T15:12:38;984.92;;;36.18;22.27
29815;BME280;16708;50.426;7.664;2022-08-19T15:17:32;984.89;;;36.40;22.30
29815;BME280;16708;50.426;7.664;2022-08-19T15:27:19;985.01;;;36.02;22.74
29815;BME280;16708;50.426;7.664;2022-08-19T15:32:14;985.03;;;36.88;22.72
29815;BME280;16708;50.426;7.664;2022-08-19T15:37:09;984.98;;;35.34;25.21
29815;BME280;16708;50.426;7.664;2022-08-19T15:42:04;984.95;;;34.94;24.62
29815;BME280;16708;50.426;7.664;2022-08-19T15:46:58;985.03;;;34.36;25.96
29815;BME280;16708;50.426;7.664;2022-08-19T15:51:53;984.92;;;34.86;24.64
29815;BME280;16708;50.426;7.664;2022-08-19T15:56:47;984.87;;;35.12;24.06
29815;BME280;16708;50.426;7.664;2022-08-19T16:01:42;984.92;;;34.80;24.85
29815;BME280;16708;50.426;7.664;2022-08-19T16:06:36;984.87;;;31.78;28.58
29815;BME280;16708;50.426;7.664;2022-08-19T16:11:31;984.95;;;34.36;25.52
29815;BME280;16708;50.426;7.664;2022-08-19T16:16:25;984.92;;;33.07;26.73
29815;BME280;16708;50.426;7.664;2022-08-19T16:21:20;984.89;;;29.81;31.52
29815;BME280;16708;50.426;7.664;2022-08-19T16:26:12;984.76;;;29.40;32.69
29815;BME280;16708;50.426;7.664;2022-08-19T16:31:05;984.75;;;28.61;33.97
29815;BME280;16708;50.426;7.664;2022-08-19T16:35:59;984.73;;;29.46;32.88
29815;BME280;16708;50.426;7.664;2022-08-19T16:40:53;984.77;;;31.04;30.24
29815;BME280;16708;50.426;7.664;2022-08-19T16:45:48;984.75;;;32.03;28.27
29815;BME280;16708;50.426;7.664;2022-08-19T16:50:44;984.75;;;31.84;27.67
29815;BME280;16708;50.426;7.664;2022-08-19T16:55:39;984.74;;;31.89;28.46
29815;BME280;16708;50.426;7.664;2022-08-19T17:00:35;984.83;;;33.34;26.36
29815;BME280;16708;50.426;7.664;2022-08-19T17:05:30;984.73;;;32.33;28.34
29815;BME280;16708;50.426;7.664;2022-08-19T17:10:22;984.75;;;30.34;31.07
29815;BME280;16708;50.426;7.664;2022-08-19T17:15:16;984.87;;;30.68;30.58
29815;BME280;16708;50.426;7.664;2022-08-19T17:20:11;984.86;;;31.07;29.76
29815;BME280;16708;50.426;7.664;2022-08-19T17:25:06;984.92;;;31.38;29.98
29815;BME280;16708;50.426;7.664;2022-08-19T17:30:00;984.98;;;30.01;31.60
29815;BME280;16708;50.426;7.664;2022-08-19T17:34:55;985.01;;;30.90;30.61
29815;BME280;16708;50.426;7.664;2022-08-19T17:39:49;985.03;;;27.11;37.49
29815;BME280;16708;50.426;7.664;2022-08-19T17:44:43;985.04;;;28.31;35.10
29815;BME280;16708;50.426;7.664;2022-08-19T17:49:38;985.02;;;28.45;34.11
29815;BME280;16708;50.426;7.664;2022-08-19T17:54:33;985.02;;;27.82;35.55
29815;BME280;16708;50.426;7.664;2022-08-19T17:59:26;985.15;;;27.89;35.79
29815;BME280;16708;50.426;7.664;2022-08-19T18:04:21;985.17;;;26.75;38.97
29815;BME280;16708;50.426;7.664;2022-08-19T18:09:15;985.22;;;25.56;40.79
29815;BME280;16708;50.426;7.664;2022-08-19T18:14:09;985.23;;;24.98;41.77
29815;BME280;16708;50.426;7.664;2022-08-19T18:19:04;985.39;;;24.75;43.52
29815;BME280;16708;50.426;7.664;2022-08-19T18:23:57;985.34;;;24.57;44.26
29815;BME280;16708;50.426;7.664;2022-08-19T18:28:52;985.36;;;24.48;46.12
29815;BME280;16708;50.426;7.664;2022-08-19T18:33:46;985.42;;;24.30;46.95
29815;BME280;16708;50.426;7.664;2022-08-19T18:38:40;985.44;;;23.94;48.24
29815;BME280;16708;50.426;7.664;2022-08-19T18:43:35;985.52;;;23.75;49.89
29815;BME280;16708;50.426;7.664;2022-08-19T18:48:29;985.62;;;23.59;51.92
29815;BME280;16708;50.426;7.664;2022-08-19T18:53:22;985.66;;;23.50;52.34
29815;BME280;16708;50.426;7.664;2022-08-19T18:58:16;985.75;;;23.33;55.58
29815;BME280;16708;50.426;7.664;2022-08-19T19:03:11;985.79;;;23.26;56.65
29815;BME280;16708;50.426;7.664;2022-08-19T19:08:05;985.82;;;23.11;58.49
29815;BME280;16708;50.426;7.664;2022-08-19T19:12:59;985.91;;;22.79;58.51
29815;BME280;16708;50.426;7.664;2022-08-19T19:17:54;986.03;;;22.55;60.30
29815;BME280;16708;50.426;7.664;2022-08-19T19:22:49;986.05;;;22.37;62.01
29815;BME280;16708;50.426;7.664;2022-08-19T19:27:42;986.19;;;22.15;63.98
29815;BME280;16708;50.426;7.664;2022-08-19T19:37:32;986.18;;;22.19;67.21
29815;BME280;16708;50.426;7.664;2022-08-19T19:42:26;986.21;;;22.40;67.58
29815;BME280;16708;50.426;7.664;2022-08-19T19:47:21;986.25;;;22.54;67.74
29815;BME280;16708;50.426;7.664;2022-08-19T19:52:16;986.24;;;22.47;68.69
29815;BME280;16708;50.426;7.664;2022-08-19T19:57:11;986.29;;;22.40;69.92
29815;BME280;16708;50.426;7.664;2022-08-19T20:02:05;986.20;;;22.37;71.08
29815;BME280;16708;50.426;7.664;2022-08-19T20:07:01;986.21;;;22.46;71.26
29815;BME280;16708;50.426;7.664;2022-08-19T20:11:55;986.29;;;22.40;71.91
29815;BME280;16708;50.426;7.664;2022-08-19T20:16:49;986.36;;;22.36;72.88
29815;BME280;16708;50.426;7.664;2022-08-19T20:21:44;986.32;;;22.18;75.14
29815;BME280;16708;50.426;7.664;2022-08-19T20:26:38;986.34;;;22.19;76.43
29815;BME280;16708;50.426;7.664;2022-08-19T20:31:33;986.40;;;22.21;77.42
29815;BME280;16708;50.426;7.664;2022-08-19T20:36:28;986.42;;;22.09;78.91
29815;BME280;16708;50.426;7.664;2022-08-19T20:41:23;986.39;;;22.16;80.35
29815;BME280;16708;50.426;7.664;2022-08-19T20:46:15;986.38;;;22.12;81.40
29815;BME280;16708;50.426;7.664;2022-08-19T20:51:10;986.43;;;22.06;81.83
29815;BME280;16708;50.426;7.664;2022-08-19T20:56:05;986.46;;;22.00;82.75
29815;BME280;16708;50.426;7.664;2022-08-19T21:00:59;986.49;;;21.97;83.60
29815;BME280;16708;50.426;7.664;2022-08-19T21:05:54;986.51;;;22.06;83.50
29815;BME280;16708;50.426;7.664;2022-08-19T21:10:50;986.47;;;22.01;84.27
29815;BME280;16708;50.426;7.664;2022-08-19T21:15:44;986.50;;;21.98;84.82
29815;BME280;16708;50.426;7.664;2022-08-19T21:20:39;986.51;;;22.03;85.04
29815;BME280;16708;50.426;7.664;2022-08-19T21:25:31;986.50;;;22.01;85.60
29815;BME280;16708;50.426;7.664;2022-08-19T21:30:26;986.54;;;22.05;85.82
29815;BME280;16708;50.426;7.664;2022-08-19T21:35:21;986.64;;;21.88;87.27
29815;BME280;16708;50.426;7.664;2022-08-19T21:40:14;986.65;;;21.81;88.17
29815;BME280;16708;50.426;7.664;2022-08-19T21:45:08;986.70;;;21.71;89.34
29815;BME280;16708;50.426;7.664;2022-08-19T21:50:02;986.66;;;21.79;89.69
29815;BME280;16708;50.426;7.664;2022-08-19T21:54:57;986.70;;;21.86;89.70
29815;BME280;16708;50.426;7.664;2022-08-19T21:59:52;986.76;;;21.80;90.32
29815;BME280;16708;50.426;7.664;2022-08-19T22:04:47;986.76;;;21.63;92.00
29815;BME280;16708;50.426;7.664;2022-08-19T22:09:42;986.75;;;21.64;93.01
29815;BME280;16708;50.426;7.664;2022-08-19T22:14:36;986.72;;;21.63;93.49
29815;BME280;16708;50.426;7.664;2022-08-19T22:19:31;986.67;;;21.56;94.72
29815;BME280;16708;50.426;7.664;2022-08-19T22:24:25;986.71;;;21.44;96.76
29815;BME280;16708;50.426;7.664;2022-08-19T22:29:20;986.71;;;21.36;97.85
29815;BME280;16708;50.426;7.664;2022-08-19T22:34:13;986.72;;;21.28;99.22
29815;BME280;16708;50.426;7.664;2022-08-19T22:39:08;986.59;;;21.30;99.56
29815;BME280;16708;50.426;7.664;2022-08-19T22:44:02;986.61;;;21.27;100.00
29815;BME280;16708;50.426;7.664;2022-08-19T22:48:57;986.67;;;21.22;100.00
29815;BME280;16708;50.426;7.664;2022-08-19T22:53:52;986.69;;;21.11;100.00
29815;BME280;16708;50.426;7.664;2022-08-19T22:58:47;986.72;;;21.11;100.00
29815;BME280;16708;50.426;7.664;2022-08-19T23:03:42;986.68;;;21.08;100.00
29815;BME280;16708;50.426;7.664;2022-08-19T23:08:37;986.63;;;20.95;100.00
29815;BME280;16708;50.426;7.664;2022-08-19T23:13:31;986.66;;;20.76;100.00
29815;BME280;16708;50.426;7.664;2022-08-19T23:18:26;986.63;;;20.87;100.00
29815;BME280;16708;50.426;7.664;2022-08-19T23:23:20;986.56;;;20.89;100.00
29815;BME280;16708;50.426;7.664;2022-08-19T23:28:14;986.54;;;20.88;100.00
29815;BME280;16708;50.426;7.664;2022-08-19T23:33:09;986.49;;;20.73;100.00
29815;BME280;16708;50.426;7.664;2022-08-19T23:38:03;986.60;;;20.58;100.00
29815;BME280;16708;50.426;7.664;2022-08-19T23:42:58;986.49;;;20.45;100.00
29815;BME280;16708;50.426;7.664;2022-08-19T23:47:53;986.55;;;20.47;100.00
29815;BME280;16708;50.426;7.664;2022-08-19T23:52:48;986.67;;;20.55;100.00
29815;BME280;16708;50.426;7.664;2022-08-19T23:57:42;986.74;;;20.55;100.00
